Huvudsida
METAR-TAF:

METAR-TAF

Flygplatser :

Ohrid-Sankt Paulus flygplats

Ohrid, Makedonien

latitud: 41-07N, longitud: 020-48E, höjd: 760 m

Aktuellt väderrapport

Denna rapport gjordes för 29 timmar och 54 minuter sedan, klockan 16:00 UTC
Vind 3 kt från nord/nordväst
Temperatur 22°C
Fuktighet 73%
Tryck 1016 hPa
Sikt 10 km eller mer
Få moln på en höjd av 3500 ft, Högtornande cumulus.
Spridda moln på en höjd av 5000 ft
Brutna moln på en höjd av 12000 ft

METAR: LWOH 171600Z 33003KT 9999 FEW035TCU SCT050 BKN120 22/17 Q1016

Tid: 23:54 (21:54 UTC)

Väderprognos

Denna rapport gjordes för 22 timmar och 24 minuter sedan, klockan 23:30 UTC
Prognos gäller från 21 kl. 00 UTC till 21 kl. 24 UTC
Vind 2 kt varierande vindriktning
Sikt 10 km eller mer
Inga moln under 1 500 m eller inga cumulonimbus

TAF: LWOH 202330Z 2100/2124 VRB02KT CAVOK

Aktuella väderrapporter och prognoser från 4000 flygplatser (METAR- och TAF-rapporter).

De tillgängliga stationerna syns som gula och röda prickar på kartan.

För musen över prickarna för att se namnen på stationerna.

Klicka sedan för att få väderrapporter och prognoser.

För att ändra kartan: Klicka på de gröna knapparna med ett svart kors på för att zooma in; den gröna knappen med ett streck på för att zooma ut; eller på de gröna pilarna för angränsande kartor.


METAR-TAF: